Time;durP1;ratioP1;P1;durP2;ratioP2;P2;SDS_P1;SDS_P2;PMS_P1;PMS_P2;Temp;Humidity;BMP_temperature;BMP_pressure;BME280_temperature;BME280_humidity;BME280_pressure;Samples;Min_cycle;Max_cycle;Signal;HPM_P1;HPM_P2
2023/03/02 00:02:44;;;;;;;6.40;4.53;;;;;;;8.00;63.01;102759.69;6226880;28;20255;-76
2023/03/02 00:06:06;;;;;;;5.50;4.27;;;;;;;7.40;63.89;102757.19;6230932;28;20589;-76
2023/03/02 00:09:30;;;;;;;5.30;4.33;;;;;;;7.46;63.86;102759.59;6238629;28;20324;-78
2023/03/02 00:12:51;;;;;;;5.73;3.97;;;;;;;7.46;63.54;102764.94;6229069;28;20223;-77
2023/03/02 00:16:12;;;;;;;6.07;4.53;;;;;;;7.41;63.92;102761.59;6232001;28;20728;-78
2023/03/02 00:19:33;;;;;;;5.77;3.77;;;;;;;7.30;63.57;102760.34;6243405;28;20228;-78
2023/03/02 00:22:53;;;;;;;4.67;4.27;;;;;;;7.51;63.41;102760.22;6222729;28;20232;-76
2023/03/02 00:26:15;;;;;;;6.40;4.60;;;;;;;7.53;62.90;102752.13;6216782;28;20232;-77
2023/03/02 00:29:36;;;;;;;5.80;3.93;;;;;;;7.50;63.64;102755.81;6228836;28;20354;-76
2023/03/02 00:32:58;;;;;;;6.57;5.77;;;;;;;7.54;62.88;102749.38;6224845;28;20248;-76
2023/03/02 00:36:19;;;;;;;6.63;5.37;;;;;;;7.48;63.17;102746.97;6218741;28;20239;-76
2023/03/02 00:39:40;;;;;;;4.93;3.23;;;;;;;7.30;63.98;102736.22;6246049;28;20232;-76
2023/03/02 00:43:02;;;;;;;6.00;3.97;;;;;;;7.25;63.74;102736.41;6233494;28;20231;-77
2023/03/02 00:46:24;;;;;;;7.07;5.10;;;;;;;7.72;62.02;102732.41;6211885;28;20231;-78
2023/03/02 00:49:47;;;;;;;5.07;4.23;;;;;;;7.49;63.47;102740.66;6243812;28;20227;-77
2023/03/02 00:53:08;;;;;;;4.73;4.17;;;;;;;7.80;61.84;102727.53;6225104;28;20606;-78
2023/03/02 00:56:29;;;;;;;5.27;3.90;;;;;;;7.59;62.45;102725.00;6228655;28;20237;-78
2023/03/02 00:59:52;;;;;;;7.07;4.43;;;;;;;7.31;64.00;102719.16;6232411;28;20229;-76
2023/03/02 01:03:33;;;;;;;6.00;4.57;;;;;;;7.32;64.06;102723.59;6237812;28;20227;-76
2023/03/02 01:06:54;;;;;;;4.90;3.77;;;;;;;7.35;63.39;102712.72;6217157;28;20610;-78
2023/03/02 01:10:15;;;;;;;5.97;4.00;;;;;;;7.38;62.57;102712.59;6240650;28;20614;-78
2023/03/02 01:13:36;;;;;;;5.90;4.23;;;;;;;7.16;63.55;102718.91;6228751;28;20637;-77
2023/03/02 01:16:58;;;;;;;4.40;3.50;;;;;;;7.26;63.75;102719.38;6222177;28;20582;-76
2023/03/02 01:20:19;;;;;;;5.47;3.77;;;;;;;7.16;63.90;102702.84;6230249;28;20672;-78
2023/03/02 01:23:41;;;;;;;7.17;4.63;;;;;;;7.29;63.32;102708.50;6234142;28;20629;-77
2023/03/02 01:27:02;;;;;;;4.40;3.23;;;;;;;6.98;63.77;102689.38;6215416;28;20311;-78
2023/03/02 01:30:22;;;;;;;3.60;3.10;;;;;;;6.99;63.86;102691.09;6233523;28;20235;-77
2023/03/02 01:33:45;;;;;;;5.97;4.23;;;;;;;6.82;64.39;102682.97;6240704;28;20232;-77
2023/03/02 01:37:05;;;;;;;6.50;4.00;;;;;;;7.03;63.53;102693.59;6238725;28;20239;-76
2023/03/02 01:40:26;;;;;;;5.10;3.40;;;;;;;6.62;64.77;102701.72;6230329;28;20231;-77
2023/03/02 01:43:48;;;;;;;3.60;3.30;;;;;;;7.06;63.50;102689.91;6229147;28;20656;-76
2023/03/02 01:47:17;;;;;;;4.37;4.07;;;;;;;7.04;64.48;102684.63;6235523;28;20232;-78
2023/03/02 01:50:53;;;;;;;5.53;3.90;;;;;;;7.36;62.39;102683.16;6241943;28;21114;-76
2023/03/02 01:54:22;;;;;;;4.83;3.47;;;;;;;7.43;62.66;102681.91;6233335;28;20340;-78
2023/03/02 01:57:51;;;;;;;3.67;3.30;;;;;;;7.47;62.46;102682.66;6235526;28;20240;-79
2023/03/02 02:01:16;;;;;;;4.33;3.27;;;;;;;7.35;63.50;102680.53;6234327;28;20228;-76
2023/03/02 02:04:40;;;;;;;3.40;3.10;;;;;;;7.45;63.37;102681.84;6235844;28;20231;-76
2023/03/02 02:08:03;;;;;;;4.23;3.53;;;;;;;7.21;63.51;102675.81;6208320;28;20239;-76
2023/03/02 02:11:24;;;;;;;3.77;2.97;;;;;;;7.08;63.49;102669.25;6239838;28;20556;-77
2023/03/02 02:14:46;;;;;;;5.53;4.03;;;;;;;7.07;62.94;102675.56;6237177;28;20247;-76
2023/03/02 02:18:08;;;;;;;5.23;3.90;;;;;;;6.90;63.55;102680.81;6247146;28;20244;-77
2023/03/02 02:21:29;;;;;;;4.27;3.63;;;;;;;6.98;64.08;102678.66;6235278;28;20799;-75
2023/03/02 02:24:57;;;;;;;5.87;4.77;;;;;;;7.16;63.32;102665.28;6245019;28;20239;-76
2023/03/02 02:28:21;;;;;;;2.63;2.23;;;;;;;7.09;64.90;102666.50;6241575;28;20254;-77
2023/03/02 02:31:47;;;;;;;5.30;3.33;;;;;;;7.29;63.92;102662.91;6243328;28;20231;-76
2023/03/02 02:35:17;;;;;;;4.83;3.97;;;;;;;6.91;64.78;102661.09;6243152;28;21173;-77
2023/03/02 02:38:40;;;;;;;4.80;3.97;;;;;;;7.07;64.62;102665.69;6245438;28;20406;-78
2023/03/02 02:42:04;;;;;;;4.23;3.27;;;;;;;6.90;64.25;102660.25;6245538;28;20231;-78
2023/03/02 02:45:28;;;;;;;2.90;2.60;;;;;;;6.97;64.24;102660.81;6241044;28;20217;-76
2023/03/02 02:48:48;;;;;;;5.40;3.57;;;;;;;7.07;63.61;102662.16;6229847;28;20235;-77
2023/03/02 02:52:14;;;;;;;4.33;3.33;;;;;;;6.63;65.18;102653.44;6234935;28;20237;-77
2023/03/02 02:55:36;;;;;;;5.67;4.20;;;;;;;6.89;64.24;102653.13;6231387;28;20224;-77
2023/03/02 02:59:02;;;;;;;4.23;3.77;;;;;;;6.78;64.58;102654.56;6236125;28;20236;-76
2023/03/02 03:02:27;;;;;;;4.77;4.13;;;;;;;6.80;65.03;102653.53;6228945;28;20232;-76
2023/03/02 03:05:49;;;;;;;4.97;3.93;;;;;;;6.94;64.78;102651.13;6249411;28;20371;-77
2023/03/02 03:09:11;;;;;;;5.63;3.50;;;;;;;7.20;64.03;102641.88;6242325;28;20244;-77
2023/03/02 03:12:43;;;;;;;6.70;4.53;;;;;;;7.16;63.66;102648.31;6229878;28;20236;-76
2023/03/02 03:16:09;;;;;;;4.00;3.47;;;;;;;6.96;64.87;102649.25;6241773;28;20823;-76
2023/03/02 03:19:32;;;;;;;3.93;3.53;;;;;;;7.13;63.98;102651.16;6242812;28;20509;-77
2023/03/02 03:22:54;;;;;;;4.10;3.20;;;;;;;6.88;64.47;102654.09;6227238;28;20228;-77
2023/03/02 03:26:16;;;;;;;7.70;4.07;;;;;;;6.72;64.96;102666.41;6226303;28;20239;-77
2023/03/02 03:29:42;;;;;;;6.07;3.67;;;;;;;6.79;64.81;102662.53;6227812;28;20232;-77
2023/03/02 03:33:09;;;;;;;4.83;4.43;;;;;;;6.79;64.74;102650.94;6233571;28;20228;-77
2023/03/02 03:36:32;;;;;;;6.07;4.50;;;;;;;6.87;64.25;102660.38;6238332;28;20367;-78
2023/03/02 03:39:55;;;;;;;3.80;2.83;;;;;;;6.79;64.34;102656.28;6242328;28;20225;-78
2023/03/02 03:43:17;;;;;;;7.63;4.43;;;;;;;6.74;65.01;102661.84;6248074;28;20227;-78
2023/03/02 03:46:44;;;;;;;5.03;3.90;;;;;;;6.80;64.64;102661.56;6249148;28;20311;-77
2023/03/02 03:50:06;;;;;;;4.33;3.93;;;;;;;6.82;64.55;102657.00;6230442;28;20254;-78
2023/03/02 03:53:29;;;;;;;5.73;3.83;;;;;;;6.96;64.14;102648.38;6245740;28;20231;-78
2023/03/02 03:56:50;;;;;;;6.10;4.10;;;;;;;6.68;64.76;102654.09;6231414;28;20315;-77
2023/03/02 04:00:15;;;;;;;4.20;3.43;;;;;;;6.72;65.04;102653.00;6197349;28;20244;-77
2023/03/02 04:03:40;;;;;;;4.77;3.67;;;;;;;7.01;64.07;102657.94;6236693;28;20618;-78
2023/03/02 04:07:01;;;;;;;4.93;3.57;;;;;;;7.18;63.44;102663.41;6228281;28;20232;-78
2023/03/02 04:10:24;;;;;;;5.17;3.50;;;;;;;6.94;64.04;102658.28;6236011;28;20229;-78
2023/03/02 04:13:47;;;;;;;6.33;4.67;;;;;;;6.92;64.87;102654.81;6226892;28;20244;-77
2023/03/02 04:17:09;;;;;;;7.13;6.17;;;;;;;7.05;63.35;102659.53;6236777;28;20271;-77
2023/03/02 04:20:35;;;;;;;8.97;4.17;;;;;;;7.22;64.08;102656.06;6236768;28;20636;-77
2023/03/02 04:23:56;;;;;;;4.53;4.13;;;;;;;7.20;65.44;102655.28;6241323;28;20850;-77
2023/03/02 04:27:19;;;;;;;5.83;4.67;;;;;;;7.06;65.31;102660.41;6240477;28;20555;-77
2023/03/02 04:30:40;;;;;;;5.33;3.83;;;;;;;6.99;65.05;102654.44;6222930;28;20311;-78
2023/03/02 04:34:03;;;;;;;4.73;4.27;;;;;;;6.93;63.91;102659.22;6229045;28;20221;-77
2023/03/02 04:37:24;;;;;;;3.43;3.13;;;;;;;7.01;63.71;102659.72;6239515;28;20508;-76
2023/03/02 04:40:46;;;;;;;4.93;3.67;;;;;;;6.79;65.66;102654.50;6233012;28;20227;-78
2023/03/02 04:44:08;;;;;;;13.37;11.80;;;;;;;6.96;64.71;102659.97;6233181;28;20248;-77
2023/03/02 04:47:29;;;;;;;20.73;18.50;;;;;;;6.94;64.31;102666.34;6248245;28;20232;-78
2023/03/02 04:50:50;;;;;;;8.37;6.20;;;;;;;7.05;63.35;102661.38;6247042;28;20235;-77
2023/03/02 04:54:14;;;;;;;5.70;4.37;;;;;;;6.75;64.50;102666.28;6241508;28;20227;-77
2023/03/02 04:57:36;;;;;;;12.13;9.27;;;;;;;6.84;64.36;102657.81;6257827;28;20812;-77
2023/03/02 05:01:01;;;;;;;13.40;10.97;;;;;;;6.67;65.37;102660.41;6233270;28;20318;-77
2023/03/02 05:04:22;;;;;;;7.47;4.87;;;;;;;6.85;64.97;102666.72;6253921;28;20227;-78
2023/03/02 05:07:43;;;;;;;13.53;8.53;;;;;;;6.87;64.94;102675.56;6257936;28;20235;-78
2023/03/02 05:11:06;;;;;;;15.43;10.60;;;;;;;6.88;64.20;102671.97;6254107;28;20228;-78
2023/03/02 05:14:28;;;;;;;7.17;4.57;;;;;;;6.94;63.11;102667.22;6253379;28;20227;-79
2023/03/02 05:17:50;;;;;;;6.77;4.30;;;;;;;6.59;65.04;102677.75;6249558;28;20239;-77
2023/03/02 05:21:11;;;;;;;4.97;4.50;;;;;;;6.62;64.50;102680.28;6249736;28;20365;-78
2023/03/02 05:24:32;;;;;;;6.13;3.77;;;;;;;6.61;64.80;102686.59;6225244;28;20281;-78
2023/03/02 05:27:53;;;;;;;5.57;4.07;;;;;;;6.50;65.56;102681.69;6247170;28;20234;-78
2023/03/02 05:31:18;;;;;;;5.73;5.07;;;;;;;6.58;65.16;102684.91;6246449;28;20243;-78
2023/03/02 05:34:40;;;;;;;5.10;3.70;;;;;;;6.35;65.61;102680.53;6246878;28;20505;-78
2023/03/02 05:38:01;;;;;;;4.33;3.57;;;;;;;6.39;65.50;102676.78;6249950;28;20653;-77
2023/03/02 05:41:22;;;;;;;6.93;4.53;;;;;;;6.22;66.82;102671.28;6244034;28;20511;-78
2023/03/02 05:44:43;;;;;;;6.50;3.77;;;;;;;6.31;66.63;102672.69;6227681;28;20224;-78
2023/03/02 05:48:05;;;;;;;4.57;4.13;;;;;;;6.51;65.36;102666.50;6243499;28;20227;-79
2023/03/02 05:51:27;;;;;;;8.07;4.93;;;;;;;6.62;64.69;102666.88;6244803;28;20323;-77
2023/03/02 05:54:48;;;;;;;4.93;4.00;;;;;;;6.60;64.61;102663.41;6245417;28;20223;-76
2023/03/02 05:58:13;;;;;;;5.73;4.33;;;;;;;6.35;66.41;102660.91;6245363;28;20327;-77
2023/03/02 06:01:35;;;;;;;6.30;4.63;;;;;;;6.51;65.52;102663.81;6233418;28;20240;-77
2023/03/02 06:04:56;;;;;;;5.70;4.43;;;;;;;6.57;65.13;102671.59;6249603;28;20232;-77
2023/03/02 06:08:21;;;;;;;6.47;4.60;;;;;;;6.35;65.48;102664.47;6247784;28;20236;-77
2023/03/02 06:11:42;;;;;;;6.27;4.63;;;;;;;6.26;66.07;102672.88;6237608;28;20330;-78
2023/03/02 06:15:04;;;;;;;6.10;4.40;;;;;;;6.01;67.31;102673.94;6228001;28;20233;-79
2023/03/02 06:18:24;;;;;;;11.70;6.00;;;;;;;5.85;67.77;102675.53;6250599;28;20334;-78
2023/03/02 06:21:45;;;;;;;4.83;3.97;;;;;;;6.08;66.66;102695.06;6240661;28;20252;-78
2023/03/02 06:25:08;;;;;;;7.10;5.83;;;;;;;6.06;67.40;102683.56;6243987;28;20233;-79
2023/03/02 06:28:29;;;;;;;6.40;4.37;;;;;;;6.12;67.36;102682.44;6246169;28;20243;-76
2023/03/02 06:31:50;;;;;;;5.93;5.30;;;;;;;6.23;66.32;102689.09;6240613;28;20769;-78
2023/03/02 06:35:12;;;;;;;6.60;4.80;;;;;;;6.24;66.67;102690.81;6234322;28;20343;-77
2023/03/02 06:38:33;;;;;;;8.17;5.93;;;;;;;6.42;66.01;102683.84;6229637;28;20760;-67
2023/03/02 06:41:57;;;;;;;4.53;4.03;;;;;;;6.55;67.14;102686.84;6250176;28;20255;-75
2023/03/02 06:45:19;;;;;;;6.37;4.33;;;;;;;6.70;64.95;102679.00;6249137;28;20220;-73
2023/03/02 06:48:39;;;;;;;5.43;4.03;;;;;;;6.69;65.26;102676.41;6245809;28;20527;-72
2023/03/02 06:52:00;;;;;;;5.53;5.03;;;;;;;6.53;64.74;102678.88;6229290;28;20227;-73
2023/03/02 06:55:21;;;;;;;9.97;5.13;;;;;;;6.58;65.49;102682.22;6240935;28;20240;-74
2023/03/02 06:58:43;;;;;;;5.97;4.47;;;;;;;6.60;64.72;102685.72;6241338;28;20552;-74
2023/03/02 07:02:04;;;;;;;5.43;4.77;;;;;;;6.24;65.88;102688.13;6249022;28;20319;-75
2023/03/02 07:05:25;;;;;;;6.67;4.87;;;;;;;6.31;66.46;102678.94;6245435;28;20244;-75
2023/03/02 07:08:46;;;;;;;8.53;5.53;;;;;;;6.63;65.10;102677.56;6240743;28;20516;-78
2023/03/02 07:12:07;;;;;;;4.47;4.03;;;;;;;6.80;64.40;102674.13;6240192;28;20219;-77
2023/03/02 07:15:29;;;;;;;10.13;5.10;;;;;;;6.75;64.32;102674.31;6242790;28;20236;-71
2023/03/02 07:18:51;;;;;;;6.53;4.83;;;;;;;6.86;63.98;102661.28;6243948;28;20613;-74
2023/03/02 07:22:12;;;;;;;11.20;5.70;;;;;;;6.68;65.10;102663.94;6239267;28;20233;-75
2023/03/02 07:25:32;;;;;;;8.83;6.50;;;;;;;6.68;64.71;102670.16;6221645;28;20835;-75
2023/03/02 07:28:53;;;;;;;7.07;5.00;;;;;;;6.69;65.33;102663.88;6226788;28;20232;-76
2023/03/02 07:32:15;;;;;;;7.90;4.57;;;;;;;7.06;63.71;102660.41;6242627;28;20232;-74
2023/03/02 07:35:36;;;;;;;12.10;8.10;;;;;;;6.99;63.97;102661.63;6245151;28;20227;-72
2023/03/02 07:38:57;;;;;;;14.27;11.20;;;;;;;7.01;63.95;102663.28;6244468;28;20223;-73
2023/03/02 07:42:18;;;;;;;10.63;7.87;;;;;;;6.93;64.48;102677.97;6232121;28;20231;-72
2023/03/02 07:45:44;;;;;;;6.17;3.93;;;;;;;6.76;65.03;102664.50;6230819;28;20247;-73
2023/03/02 07:49:07;;;;;;;10.20;6.43;;;;;;;6.85;64.72;102666.72;6250816;28;20807;-75
2023/03/02 07:52:28;;;;;;;8.60;5.80;;;;;;;6.91;64.06;102661.09;6228733;28;20284;-76
2023/03/02 07:55:49;;;;;;;7.37;5.83;;;;;;;7.02;63.54;102657.00;6244471;28;20502;-74
2023/03/02 07:59:11;;;;;;;7.57;6.37;;;;;;;7.03;64.08;102653.38;6244770;28;20227;-75
2023/03/02 08:02:32;;;;;;;5.73;4.17;;;;;;;6.83;64.65;102657.91;6240033;28;20618;-74
2023/03/02 08:05:55;;;;;;;8.63;5.57;;;;;;;6.85;65.00;102656.91;6243188;28;20231;-76
2023/03/02 08:09:17;;;;;;;6.87;4.93;;;;;;;7.07;64.31;102656.81;6234684;28;20580;-75
2023/03/02 08:12:37;;;;;;;7.80;4.70;;;;;;;6.88;64.90;102650.53;6222976;28;20279;-75
2023/03/02 08:16:03;;;;;;;7.07;4.20;;;;;;;7.24;62.83;102651.50;6219678;28;20624;-75
2023/03/02 08:19:25;;;;;;;7.10;4.80;;;;;;;7.03;63.48;102655.22;6237704;28;20243;-74
2023/03/02 08:22:47;;;;;;;7.67;5.63;;;;;;;7.10;63.77;102657.53;6240783;28;20232;-74
2023/03/02 08:26:08;;;;;;;6.43;5.27;;;;;;;6.74;65.02;102650.28;6229420;28;20240;-73
2023/03/02 08:29:29;;;;;;;6.67;4.50;;;;;;;6.83;65.20;102648.06;6230751;28;20232;-75
2023/03/02 08:32:50;;;;;;;7.63;4.90;;;;;;;6.52;66.29;102647.66;6235243;28;20251;-73
2023/03/02 08:36:13;;;;;;;5.50;4.33;;;;;;;6.99;64.76;102654.44;6233231;28;20601;-77
2023/03/02 08:39:35;;;;;;;6.10;5.03;;;;;;;6.98;64.61;102651.84;6244888;28;20548;-77
2023/03/02 08:42:56;;;;;;;9.73;5.43;;;;;;;7.21;63.46;102646.31;6216862;28;20475;-76
2023/03/02 08:46:18;;;;;;;8.57;4.80;;;;;;;7.28;63.92;102645.06;6238586;28;20220;-72
2023/03/02 08:49:39;;;;;;;7.53;5.10;;;;;;;7.24;63.59;102647.03;6239769;28;20227;-73
2023/03/02 08:53:00;;;;;;;9.07;6.37;;;;;;;7.20;63.58;102652.59;6238126;28;20311;-74
2023/03/02 08:56:25;;;;;;;5.07;4.07;;;;;;;7.39;63.23;102650.78;6234595;28;20224;-71
2023/03/02 08:59:46;;;;;;;6.57;4.77;;;;;;;6.86;64.19;102647.91;6248023;28;20236;-72
2023/03/02 09:03:07;;;;;;;6.77;4.27;;;;;;;6.88;64.49;102648.72;6234932;28;20227;-73
2023/03/02 09:06:30;;;;;;;5.83;4.40;;;;;;;7.08;63.90;102640.63;6244060;28;20639;-74
2023/03/02 09:09:51;;;;;;;7.57;4.97;;;;;;;7.10;64.08;102635.19;6251640;28;20239;-75
2023/03/02 09:13:13;;;;;;;8.63;6.27;;;;;;;7.03;64.13;102634.59;6244058;28;20318;-74
2023/03/02 09:16:34;;;;;;;8.43;6.73;;;;;;;7.27;63.85;102619.19;6221514;28;20543;-73
2023/03/02 09:19:55;;;;;;;9.37;6.23;;;;;;;7.17;63.08;102617.88;6254350;28;20235;-72
2023/03/02 09:23:15;;;;;;;6.70;4.43;;;;;;;7.03;64.60;102623.88;6244170;28;20228;-75
2023/03/02 09:26:37;;;;;;;5.73;4.87;;;;;;;7.03;64.06;102620.34;6239326;28;21465;-75
2023/03/02 09:30:00;;;;;;;7.70;5.23;;;;;;;7.10;64.89;102624.47;6245431;28;20224;-73
2023/03/02 09:33:21;;;;;;;8.17;6.20;;;;;;;7.44;63.15;102626.44;6246896;28;20326;-74
2023/03/02 09:36:43;;;;;;;7.40;5.00;;;;;;;7.69;62.73;102616.25;6252144;28;20334;-75
2023/03/02 09:40:06;;;;;;;6.27;4.77;;;;;;;7.98;61.78;102619.25;6242856;28;20235;-73
2023/03/02 09:43:39;;;;;;;6.73;4.60;;;;;;;8.28;62.56;102624.06;6244470;28;20248;-74
2023/03/02 09:47:04;;;;;;;8.40;5.20;;;;;;;8.76;61.46;102626.88;6252001;28;20862;-75
2023/03/02 09:50:30;;;;;;;6.93;4.63;;;;;;;8.60;59.46;102625.91;6257442;28;20487;-73
2023/03/02 09:53:55;;;;;;;6.00;4.83;;;;;;;8.52;59.54;102622.78;6231709;28;20529;-74
2023/03/02 09:57:21;;;;;;;10.67;7.87;;;;;;;8.15;60.60;102629.16;6256873;28;20233;-73
2023/03/02 10:00:46;;;;;;;6.37;4.83;;;;;;;8.35;59.68;102620.97;6249500;28;20508;-73
2023/03/02 10:04:16;;;;;;;9.73;5.53;;;;;;;8.12;60.67;102629.28;6237923;28;20232;-74
2023/03/02 10:07:39;;;;;;;7.17;4.53;;;;;;;8.39;60.35;102627.03;6239111;28;20753;-75
2023/03/02 10:11:10;;;;;;;9.30;6.00;;;;;;;8.18;60.65;102642.41;6248724;28;20239;-72
2023/03/02 10:14:39;;;;;;;8.07;5.27;;;;;;;8.24;60.26;102639.41;6233440;28;20327;-76
2023/03/02 10:18:09;;;;;;;7.90;4.77;;;;;;;7.89;61.07;102635.81;6234281;28;20449;-74
2023/03/02 10:21:38;;;;;;;6.70;5.00;;;;;;;7.98;61.81;102632.69;6241921;28;20311;-77
2023/03/02 10:25:14;;;;;;;5.03;4.53;;;;;;;7.75;62.08;102624.88;6242056;28;20588;-73
2023/03/02 10:28:41;;;;;;;7.50;5.47;;;;;;;7.96;60.76;102626.50;6246023;28;20248;-74
2023/03/02 10:32:13;;;;;;;8.70;5.73;;;;;;;8.43;60.12;102632.16;6247018;28;20311;-73
2023/03/02 10:35:36;;;;;;;7.30;5.00;;;;;;;8.46;59.39;102617.72;6240965;28;20556;-71
2023/03/02 10:39:00;;;;;;;6.53;5.53;;;;;;;8.59;59.75;102622.38;6245385;28;20248;-71
2023/03/02 10:42:28;;;;;;;8.37;5.77;;;;;;;8.72;59.04;102622.56;6243232;28;20231;-75
2023/03/02 10:45:59;;;;;;;5.87;5.37;;;;;;;8.52;59.73;102629.03;6237645;28;20298;-73
2023/03/02 10:49:25;;;;;;;5.00;3.47;;;;;;;8.59;59.90;102625.06;6240100;28;20573;-70
2023/03/02 10:52:50;;;;;;;7.13;4.57;;;;;;;8.49;59.32;102625.63;6236207;28;20227;-75
2023/03/02 10:56:20;;;;;;;6.80;4.83;;;;;;;8.39;59.79;102627.03;6239480;28;20223;-72
2023/03/02 10:59:44;;;;;;;4.60;3.87;;;;;;;8.36;60.85;102629.91;6244798;28;20559;-70
2023/03/02 11:03:21;;;;;;;5.13;4.47;;;;;;;8.31;60.59;102630.13;6223870;28;20717;-73
2023/03/02 11:06:42;;;;;;;7.63;5.10;;;;;;;8.31;60.81;102621.19;6221704;28;20252;-73
2023/03/02 11:10:06;;;;;;;5.53;3.80;;;;;;;8.58;61.07;102614.38;6247408;28;20223;-74
2023/03/02 11:13:31;;;;;;;7.30;4.97;;;;;;;8.37;61.17;102618.19;6229171;28;20228;-72
2023/03/02 11:16:53;;;;;;;8.20;4.53;;;;;;;8.31;60.43;102611.31;6238799;28;20543;-75
2023/03/02 11:20:17;;;;;;;7.33;4.87;;;;;;;8.49;59.58;102615.72;6238983;28;20324;-69
2023/03/02 11:23:51;;;;;;;6.03;5.47;;;;;;;8.60;60.17;102609.78;6233915;28;20247;-73
2023/03/02 11:27:18;;;;;;;7.10;5.20;;;;;;;8.24;61.51;102609.00;6244611;28;20677;-72
2023/03/02 11:30:47;;;;;;;5.30;4.27;;;;;;;8.24;60.93;102607.16;6240405;28;20537;-76
2023/03/02 11:34:18;;;;;;;8.10;5.97;;;;;;;8.62;59.94;102603.38;6237796;28;20232;-74
2023/03/02 11:37:40;;;;;;;7.20;4.63;;;;;;;8.40;60.19;102604.59;6222296;28;20223;-72
2023/03/02 11:41:06;;;;;;;5.77;4.27;;;;;;;8.40;60.09;102597.41;6224160;28;20566;-74
2023/03/02 11:44:28;;;;;;;8.37;5.17;;;;;;;8.29;60.82;102589.03;6242011;28;20227;-73
2023/03/02 11:47:54;;;;;;;7.97;5.67;;;;;;;8.34;61.14;102588.81;6228147;28;20513;-77
2023/03/02 11:51:20;;;;;;;7.33;4.60;;;;;;;8.59;61.10;102590.13;6232867;28;20247;-73
2023/03/02 11:54:45;;;;;;;5.60;3.43;;;;;;;8.66;60.59;102582.56;6244587;28;20232;-72
2023/03/02 11:58:12;;;;;;;6.90;4.67;;;;;;;8.78;59.69;102587.31;6244883;28;20724;-72
2023/03/02 12:01:36;;;;;;;5.93;4.37;;;;;;;8.73;59.89;102584.88;6231827;28;20573;-74
2023/03/02 12:05:07;;;;;;;6.50;4.07;;;;;;;8.86;59.87;102579.69;6235309;28;20232;-74
2023/03/02 12:08:36;;;;;;;5.77;3.47;;;;;;;8.98;58.97;102584.41;6223877;28;20365;-73
2023/03/02 12:12:00;;;;;;;7.57;4.60;;;;;;;8.39;61.01;102576.84;6229947;28;20259;-73
2023/03/02 12:15:46;;;;;;;13.73;5.97;;;;;;;8.36;61.66;102578.84;6240716;28;20231;-74
2023/03/02 12:19:24;;;;;;;6.20;5.57;;;;;;;8.54;61.13;102581.44;6239788;28;20260;-75
2023/03/02 12:22:47;;;;;;;8.63;5.20;;;;;;;8.58;60.95;102574.94;6213582;28;20828;-73
2023/03/02 12:26:24;;;;;;;12.80;4.37;;;;;;;8.78;61.36;102571.19;6218630;28;20249;-74
2023/03/02 12:29:47;;;;;;;8.97;6.00;;;;;;;8.52;61.35;102560.94;6242386;28;20609;-75
2023/03/02 12:33:20;;;;;;;8.73;4.87;;;;;;;8.34;62.14;102561.94;6212124;28;20223;-74
2023/03/02 12:36:43;;;;;;;8.00;5.03;;;;;;;8.90;60.39;102548.13;6240160;28;20800;-75
2023/03/02 12:40:38;;;;;;;7.33;5.30;;;;;;;8.83;60.39;102547.59;6240003;28;20629;-75
2023/03/02 12:44:13;;;;;;;8.63;5.57;;;;;;;9.29;59.63;102543.19;6233223;28;20226;-76
2023/03/02 12:47:38;;;;;;;7.87;5.30;;;;;;;9.36;59.17;102547.28;6236336;28;20693;-75
2023/03/02 12:51:01;;;;;;;8.87;5.53;;;;;;;9.25;59.06;102541.63;6231165;28;20235;-76
2023/03/02 12:54:25;;;;;;;6.53;5.20;;;;;;;9.00;59.85;102541.28;6239791;28;20625;-74
2023/03/02 12:57:51;;;;;;;6.47;4.63;;;;;;;9.27;58.87;102531.66;6229950;28;20223;-74
2023/03/02 13:01:21;;;;;;;6.90;4.07;;;;;;;9.29;59.01;102524.38;6240878;28;20239;-73
2023/03/02 13:04:42;;;;;;;6.20;4.40;;;;;;;9.41;59.26;102529.91;6255689;28;20258;-73
2023/03/02 13:08:07;;;;;;;9.77;5.50;;;;;;;9.31;59.61;102514.38;6239429;28;20228;-74
2023/03/02 13:11:32;;;;;;;7.00;5.37;;;;;;;9.57;58.35;102521.84;6243509;28;20604;-73
2023/03/02 13:14:57;;;;;;;5.27;4.13;;;;;;;9.35;58.71;102514.13;6255082;28;20220;-73
2023/03/02 13:18:19;;;;;;;7.13;5.47;;;;;;;9.36;59.55;102510.50;6251231;28;20223;-72
2023/03/02 13:21:40;;;;;;;8.63;6.03;;;;;;;9.54;58.40;102511.22;6239460;28;20227;-76
2023/03/02 13:25:04;;;;;;;7.10;5.17;;;;;;;9.79;57.56;102506.13;6256861;28;20224;-75
2023/03/02 13:28:28;;;;;;;5.90;5.10;;;;;;;9.52;58.38;102508.63;6251230;28;20307;-74
2023/03/02 13:31:52;;;;;;;5.07;4.13;;;;;;;9.68;57.77;102505.88;6231621;28;20237;-75
2023/03/02 13:35:27;;;;;;;5.73;5.23;;;;;;;9.76;58.00;102495.56;6256322;28;20232;-73
2023/03/02 13:38:50;;;;;;;9.43;5.33;;;;;;;9.70;58.29;102495.06;6233902;28;20810;-74
2023/03/02 13:42:26;;;;;;;5.57;5.10;;;;;;;9.21;60.45;102497.03;6248700;28;20215;-73
2023/03/02 13:45:56;;;;;;;7.80;5.13;;;;;;;9.40;59.93;102493.19;6256160;28;20315;-77
2023/03/02 13:49:28;;;;;;;5.97;3.67;;;;;;;9.50;58.81;102494.41;6256940;28;20231;-73
2023/03/02 13:52:49;;;;;;;7.23;4.30;;;;;;;9.51;58.72;102492.56;6236405;28;20390;-72
2023/03/02 13:56:17;;;;;;;4.33;3.93;;;;;;;9.37;58.37;102479.91;6237634;28;20322;-76
2023/03/02 13:59:37;;;;;;;5.63;4.23;;;;;;;9.48;58.64;102488.25;6244753;28;20227;-74
2023/03/02 14:02:58;;;;;;;9.00;8.10;;;;;;;9.49;58.45;102471.13;6239591;28;20226;-77
2023/03/02 14:06:21;;;;;;;8.87;6.20;;;;;;;9.62;59.51;102471.25;6219646;28;20224;-73
2023/03/02 14:09:41;;;;;;;5.23;4.73;;;;;;;9.66;58.33;102462.03;6241538;28;20251;-75
2023/03/02 14:13:07;;;;;;;3.27;2.47;;;;;;;9.73;57.38;102455.34;6252348;28;20726;-77
2023/03/02 14:16:28;;;;;;;4.17;3.87;;;;;;;9.44;58.63;102451.69;6236730;28;20831;-72
2023/03/02 14:19:51;;;;;;;4.60;3.47;;;;;;;9.62;58.18;102455.97;6237021;28;20240;-78
2023/03/02 14:23:13;;;;;;;7.07;6.40;;;;;;;9.63;57.85;102448.78;6232887;28;20422;-78
2023/03/02 14:26:39;;;;;;;6.77;5.77;;;;;;;9.95;57.11;102439.59;6235972;28;20235;-77
2023/03/02 14:30:00;;;;;;;3.47;2.97;;;;;;;9.94;56.67;102445.97;6242500;28;20232;-74
2023/03/02 14:33:22;;;;;;;3.47;2.67;;;;;;;10.07;56.47;102436.19;6246965;28;20228;-75
2023/03/02 14:36:45;;;;;;;3.30;2.57;;;;;;;10.02;56.08;102440.97;6237462;28;20236;-71
2023/03/02 14:40:15;;;;;;;8.90;6.27;;;;;;;9.91;57.05;102431.81;6256646;28;20505;-74
2023/03/02 14:43:36;;;;;;;7.07;4.23;;;;;;;9.94;56.86;102431.63;6242392;28;20503;-74
2023/03/02 14:46:57;;;;;;;4.80;3.77;;;;;;;9.93;57.11;102430.75;6238457;28;20361;-76
2023/03/02 14:50:18;;;;;;;4.77;3.00;;;;;;;9.97;56.68;102431.44;6240716;28;20565;-72
2023/03/02 14:53:39;;;;;;;4.37;3.97;;;;;;;9.84;58.20;102438.53;6236134;28;20231;-73
2023/03/02 14:57:01;;;;;;;5.97;4.60;;;;;;;9.75;57.73;102437.25;6237253;28;21693;-74
2023/03/02 15:00:23;;;;;;;6.90;3.17;;;;;;;9.85;56.60;102430.34;6249028;28;20240;-75
2023/03/02 15:03:43;;;;;;;3.00;2.57;;;;;;;9.83;56.61;102431.41;6242556;28;20330;-75
2023/03/02 15:07:04;;;;;;;4.17;2.83;;;;;;;10.37;55.19;102422.63;6229723;28;20854;-74
2023/03/02 15:10:25;;;;;;;3.27;2.97;;;;;;;10.23;54.90;102422.63;6241297;28;20602;-74
2023/03/02 15:13:48;;;;;;;2.43;1.97;;;;;;;10.67;54.32;102422.50;6244083;28;20231;-75
2023/03/02 15:17:10;;;;;;;4.67;3.20;;;;;;;10.30;54.85;102429.38;6247117;28;20228;-74
2023/03/02 15:20:30;;;;;;;4.23;2.60;;;;;;;10.32;54.67;102422.06;6237874;28;20323;-74
2023/03/02 15:23:52;;;;;;;3.37;2.57;;;;;;;9.98;55.76;102427.78;6251738;28;20231;-73
2023/03/02 15:27:13;;;;;;;3.50;3.20;;;;;;;9.77;56.28;102423.69;6247633;28;20241;-74
2023/03/02 15:30:35;;;;;;;3.93;2.67;;;;;;;9.75;56.42;102422.91;6254821;28;20225;-74
2023/03/02 15:33:56;;;;;;;3.10;2.83;;;;;;;9.86;56.11;102415.06;6259738;28;20228;-75
2023/03/02 15:37:17;;;;;;;3.37;2.93;;;;;;;9.53;57.31;102402.66;6251037;28;20231;-75
2023/03/02 15:40:38;;;;;;;3.67;2.83;;;;;;;9.28;58.08;102397.00;6258617;28;20236;-74
2023/03/02 15:43:58;;;;;;;5.37;2.80;;;;;;;9.26;58.09;102408.84;6249714;28;20224;-75
2023/03/02 15:47:21;;;;;;;3.17;2.87;;;;;;;9.30;58.42;102411.28;6244433;28;20287;-76
2023/03/02 15:50:41;;;;;;;3.93;2.93;;;;;;;9.19;58.32;102397.56;6258039;28;20606;-79
2023/03/02 15:54:02;;;;;;;5.83;4.57;;;;;;;8.76;59.04;102404.53;6248835;28;20314;-75
2023/03/02 15:57:23;;;;;;;5.83;3.20;;;;;;;8.89;59.47;102403.88;6234558;28;20224;-74